sensor_id;sensor_type;location;lat;lon;timestamp;P1;durP1;ratioP1;P2;durP2;ratioP2
66327;SDS011;53133;52.862;6.602;2023-04-03T00:01:34;1.77;;;0.90;;
66327;SDS011;53133;52.862;6.602;2023-04-03T00:04:00;1.90;;;1.02;;
66327;SDS011;53133;52.862;6.602;2023-04-03T00:06:26;4.10;;;1.27;;
66327;SDS011;53133;52.862;6.602;2023-04-03T00:08:51;3.90;;;1.10;;
66327;SDS011;53133;52.862;6.602;2023-04-03T00:11:18;3.40;;;1.42;;
66327;SDS011;53133;52.862;6.602;2023-04-03T00:13:44;1.98;;;1.10;;
66327;SDS011;53133;52.862;6.602;2023-04-03T00:16:10;2.80;;;1.10;;
66327;SDS011;53133;52.862;6.602;2023-04-03T00:18:36;3.63;;;1.38;;
66327;SDS011;53133;52.862;6.602;2023-04-03T00:21:03;3.50;;;1.15;;
66327;SDS011;53133;52.862;6.602;2023-04-03T00:23:29;3.03;;;1.10;;
66327;SDS011;53133;52.862;6.602;2023-04-03T00:25:55;2.83;;;0.98;;
66327;SDS011;53133;52.862;6.602;2023-04-03T00:28:21;2.45;;;0.90;;
66327;SDS011;53133;52.862;6.602;2023-04-03T00:30:50;3.05;;;1.17;;
66327;SDS011;53133;52.862;6.602;2023-04-03T00:33:16;3.72;;;1.10;;
66327;SDS011;53133;52.862;6.602;2023-04-03T00:35:42;1.48;;;1.00;;
66327;SDS011;53133;52.862;6.602;2023-04-03T00:38:07;4.28;;;1.27;;
66327;SDS011;53133;52.862;6.602;2023-04-03T00:40:37;4.22;;;1.08;;
66327;SDS011;53133;52.862;6.602;2023-04-03T00:43:17;1.38;;;0.95;;
66327;SDS011;53133;52.862;6.602;2023-04-03T00:45:51;2.97;;;1.10;;
66327;SDS011;53133;52.862;6.602;2023-04-03T00:48:22;2.97;;;1.00;;
66327;SDS011;53133;52.862;6.602;2023-04-03T00:50:55;2.42;;;1.20;;
66327;SDS011;53133;52.862;6.602;2023-04-03T00:53:23;2.67;;;1.02;;
66327;SDS011;53133;52.862;6.602;2023-04-03T00:55:57;4.10;;;1.50;;
66327;SDS011;53133;52.862;6.602;2023-04-03T00:58:25;2.60;;;1.13;;
66327;SDS011;53133;52.862;6.602;2023-04-03T01:00:59;3.03;;;1.17;;
66327;SDS011;53133;52.862;6.602;2023-04-03T01:03:29;3.17;;;1.38;;
66327;SDS011;53133;52.862;6.602;2023-04-03T01:05:56;2.07;;;1.00;;
66327;SDS011;53133;52.862;6.602;2023-04-03T01:08:22;3.72;;;1.30;;
66327;SDS011;53133;52.862;6.602;2023-04-03T01:10:48;1.50;;;1.00;;
66327;SDS011;53133;52.862;6.602;2023-04-03T01:13:25;2.97;;;1.40;;
66327;SDS011;53133;52.862;6.602;2023-04-03T01:15:56;2.78;;;1.10;;
66327;SDS011;53133;52.862;6.602;2023-04-03T01:18:25;2.88;;;1.20;;
66327;SDS011;53133;52.862;6.602;2023-04-03T01:26:06;2.88;;;1.20;;
66327;SDS011;53133;52.862;6.602;2023-04-03T01:28:34;2.57;;;1.20;;
66327;SDS011;53133;52.862;6.602;2023-04-03T01:33:48;4.47;;;1.30;;
66327;SDS011;53133;52.862;6.602;2023-04-03T01:36:20;1.88;;;1.10;;
66327;SDS011;53133;52.862;6.602;2023-04-03T01:38:47;2.90;;;1.20;;
66327;SDS011;53133;52.862;6.602;2023-04-03T01:41:13;2.80;;;1.35;;
66327;SDS011;53133;52.862;6.602;2023-04-03T01:43:39;2.78;;;1.13;;
66327;SDS011;53133;52.862;6.602;2023-04-03T01:46:05;6.40;;;1.50;;
66327;SDS011;53133;52.862;6.602;2023-04-03T01:48:31;3.33;;;1.05;;
66327;SDS011;53133;52.862;6.602;2023-04-03T01:50:56;2.47;;;1.40;;
66327;SDS011;53133;52.862;6.602;2023-04-03T01:53:22;5.05;;;1.27;;
66327;SDS011;53133;52.862;6.602;2023-04-03T01:55:48;5.07;;;1.67;;
66327;SDS011;53133;52.862;6.602;2023-04-03T01:58:13;2.35;;;1.30;;
66327;SDS011;53133;52.862;6.602;2023-04-03T02:00:39;4.50;;;1.38;;
66327;SDS011;53133;52.862;6.602;2023-04-03T02:03:04;3.47;;;1.58;;
66327;SDS011;53133;52.862;6.602;2023-04-03T02:05:30;3.73;;;1.23;;
66327;SDS011;53133;52.862;6.602;2023-04-03T02:07:56;2.50;;;1.20;;
66327;SDS011;53133;52.862;6.602;2023-04-03T02:10:21;2.15;;;1.10;;
66327;SDS011;53133;52.862;6.602;2023-04-03T02:12:47;3.37;;;1.50;;
66327;SDS011;53133;52.862;6.602;2023-04-03T02:15:12;3.60;;;1.40;;
66327;SDS011;53133;52.862;6.602;2023-04-03T02:17:38;4.30;;;1.67;;
66327;SDS011;53133;52.862;6.602;2023-04-03T02:20:04;2.72;;;1.23;;
66327;SDS011;53133;52.862;6.602;2023-04-03T02:22:30;4.88;;;1.58;;
66327;SDS011;53133;52.862;6.602;2023-04-03T02:24:56;2.63;;;1.50;;
66327;SDS011;53133;52.862;6.602;2023-04-03T02:27:21;2.87;;;1.40;;
66327;SDS011;53133;52.862;6.602;2023-04-03T02:29:47;4.40;;;1.80;;
66327;SDS011;53133;52.862;6.602;2023-04-03T02:32:13;3.60;;;1.73;;
66327;SDS011;53133;52.862;6.602;2023-04-03T02:34:38;3.53;;;1.35;;
66327;SDS011;53133;52.862;6.602;2023-04-03T02:37:04;3.87;;;1.53;;
66327;SDS011;53133;52.862;6.602;2023-04-03T02:39:30;5.18;;;1.80;;
66327;SDS011;53133;52.862;6.602;2023-04-03T02:41:55;3.83;;;1.37;;
66327;SDS011;53133;52.862;6.602;2023-04-03T02:44:21;4.05;;;1.63;;
66327;SDS011;53133;52.862;6.602;2023-04-03T02:46:48;4.40;;;1.50;;
66327;SDS011;53133;52.862;6.602;2023-04-03T02:49:14;3.10;;;1.60;;
66327;SDS011;53133;52.862;6.602;2023-04-03T02:51:40;3.07;;;1.67;;
66327;SDS011;53133;52.862;6.602;2023-04-03T02:54:06;2.92;;;1.17;;
66327;SDS011;53133;52.862;6.602;2023-04-03T02:56:32;3.27;;;1.67;;
66327;SDS011;53133;52.862;6.602;2023-04-03T02:58:57;4.43;;;1.55;;
66327;SDS011;53133;52.862;6.602;2023-04-03T03:01:23;7.30;;;2.03;;
66327;SDS011;53133;52.862;6.602;2023-04-03T03:03:49;4.20;;;1.80;;
66327;SDS011;53133;52.862;6.602;2023-04-03T03:06:15;2.97;;;1.73;;
66327;SDS011;53133;52.862;6.602;2023-04-03T03:08:42;4.33;;;2.10;;
66327;SDS011;53133;52.862;6.602;2023-04-03T03:11:08;4.40;;;1.60;;
66327;SDS011;53133;52.862;6.602;2023-04-03T03:13:34;6.10;;;1.80;;
66327;SDS011;53133;52.862;6.602;2023-04-03T03:16:00;3.47;;;1.67;;
66327;SDS011;53133;52.862;6.602;2023-04-03T03:18:27;6.17;;;2.13;;
66327;SDS011;53133;52.862;6.602;2023-04-03T03:20:53;3.63;;;1.80;;
66327;SDS011;53133;52.862;6.602;2023-04-03T03:23:21;3.93;;;1.57;;
66327;SDS011;53133;52.862;6.602;2023-04-03T03:25:47;4.33;;;1.80;;
66327;SDS011;53133;52.862;6.602;2023-04-03T03:28:13;7.07;;;1.80;;
66327;SDS011;53133;52.862;6.602;2023-04-03T03:30:38;4.40;;;1.70;;
66327;SDS011;53133;52.862;6.602;2023-04-03T03:33:04;3.67;;;1.83;;
66327;SDS011;53133;52.862;6.602;2023-04-03T03:35:30;4.77;;;1.77;;
66327;SDS011;53133;52.862;6.602;2023-04-03T03:37:55;3.93;;;1.93;;
66327;SDS011;53133;52.862;6.602;2023-04-03T03:40:21;3.47;;;1.70;;
66327;SDS011;53133;52.862;6.602;2023-04-03T03:42:46;4.83;;;2.40;;
66327;SDS011;53133;52.862;6.602;2023-04-03T03:45:12;2.90;;;1.40;;
66327;SDS011;53133;52.862;6.602;2023-04-03T03:47:38;3.00;;;1.67;;
66327;SDS011;53133;52.862;6.602;2023-04-03T03:50:05;4.23;;;1.77;;
66327;SDS011;53133;52.862;6.602;2023-04-03T03:52:31;7.00;;;1.70;;
66327;SDS011;53133;52.862;6.602;2023-04-03T03:54:56;4.80;;;1.97;;
66327;SDS011;53133;52.862;6.602;2023-04-03T03:57:22;4.87;;;1.67;;
66327;SDS011;53133;52.862;6.602;2023-04-03T03:59:48;3.67;;;1.80;;
66327;SDS011;53133;52.862;6.602;2023-04-03T04:02:14;5.17;;;1.90;;
66327;SDS011;53133;52.862;6.602;2023-04-03T04:04:39;5.00;;;1.80;;
66327;SDS011;53133;52.862;6.602;2023-04-03T04:07:05;6.60;;;1.90;;
66327;SDS011;53133;52.862;6.602;2023-04-03T04:09:30;3.97;;;1.80;;
66327;SDS011;53133;52.862;6.602;2023-04-03T04:11:56;9.93;;;1.90;;
66327;SDS011;53133;52.862;6.602;2023-04-03T04:14:22;3.57;;;1.63;;
66327;SDS011;53133;52.862;6.602;2023-04-03T04:16:47;3.50;;;1.57;;
66327;SDS011;53133;52.862;6.602;2023-04-03T04:19:13;5.10;;;2.00;;
66327;SDS011;53133;52.862;6.602;2023-04-03T04:21:39;4.27;;;1.90;;
66327;SDS011;53133;52.862;6.602;2023-04-03T04:24:06;4.90;;;2.20;;
66327;SDS011;53133;52.862;6.602;2023-04-03T04:26:32;3.90;;;1.80;;
66327;SDS011;53133;52.862;6.602;2023-04-03T04:28:58;5.33;;;1.83;;
66327;SDS011;53133;52.862;6.602;2023-04-03T04:31:23;5.00;;;2.13;;
66327;SDS011;53133;52.862;6.602;2023-04-03T04:33:49;4.30;;;1.90;;
66327;SDS011;53133;52.862;6.602;2023-04-03T04:36:15;4.67;;;2.27;;
66327;SDS011;53133;52.862;6.602;2023-04-03T04:38:41;5.27;;;2.23;;
66327;SDS011;53133;52.862;6.602;2023-04-03T04:41:07;6.20;;;2.07;;
66327;SDS011;53133;52.862;6.602;2023-04-03T04:43:32;4.30;;;2.33;;
66327;SDS011;53133;52.862;6.602;2023-04-03T04:46:05;7.70;;;2.00;;
66327;SDS011;53133;52.862;6.602;2023-04-03T04:48:37;2.80;;;2.13;;
66327;SDS011;53133;52.862;6.602;2023-04-03T04:51:03;3.67;;;2.23;;
66327;SDS011;53133;52.862;6.602;2023-04-03T04:53:29;4.60;;;1.90;;
66327;SDS011;53133;52.862;6.602;2023-04-03T04:55:55;6.47;;;2.10;;
66327;SDS011;53133;52.862;6.602;2023-04-03T04:58:20;4.37;;;2.30;;
66327;SDS011;53133;52.862;6.602;2023-04-03T05:00:46;6.90;;;2.20;;
66327;SDS011;53133;52.862;6.602;2023-04-03T05:03:12;4.23;;;2.47;;
66327;SDS011;53133;52.862;6.602;2023-04-03T05:05:38;6.47;;;2.33;;
66327;SDS011;53133;52.862;6.602;2023-04-03T05:08:04;8.07;;;2.47;;
66327;SDS011;53133;52.862;6.602;2023-04-03T05:10:31;6.30;;;2.40;;
66327;SDS011;53133;52.862;6.602;2023-04-03T05:12:57;7.23;;;2.93;;
66327;SDS011;53133;52.862;6.602;2023-04-03T05:15:22;5.80;;;2.77;;
66327;SDS011;53133;52.862;6.602;2023-04-03T05:17:48;5.27;;;2.23;;
66327;SDS011;53133;52.862;6.602;2023-04-03T05:20:14;6.47;;;2.10;;
66327;SDS011;53133;52.862;6.602;2023-04-03T05:22:39;5.20;;;2.13;;
66327;SDS011;53133;52.862;6.602;2023-04-03T05:25:05;6.17;;;2.57;;
66327;SDS011;53133;52.862;6.602;2023-04-03T05:27:31;4.50;;;2.30;;
66327;SDS011;53133;52.862;6.602;2023-04-03T05:29:57;5.83;;;2.40;;
66327;SDS011;53133;52.862;6.602;2023-04-03T05:32:23;7.60;;;2.30;;
66327;SDS011;53133;52.862;6.602;2023-04-03T05:34:50;5.83;;;2.53;;
66327;SDS011;53133;52.862;6.602;2023-04-03T05:37:16;5.13;;;2.37;;
66327;SDS011;53133;52.862;6.602;2023-04-03T05:39:42;3.83;;;2.30;;
66327;SDS011;53133;52.862;6.602;2023-04-03T05:42:08;5.80;;;2.70;;
66327;SDS011;53133;52.862;6.602;2023-04-03T05:44:34;10.57;;;2.57;;
66327;SDS011;53133;52.862;6.602;2023-04-03T05:47:00;6.83;;;2.80;;
66327;SDS011;53133;52.862;6.602;2023-04-03T05:49:26;6.33;;;2.50;;
66327;SDS011;53133;52.862;6.602;2023-04-03T05:51:51;6.83;;;2.83;;
66327;SDS011;53133;52.862;6.602;2023-04-03T05:56:44;5.20;;;2.70;;
66327;SDS011;53133;52.862;6.602;2023-04-03T05:59:10;6.03;;;2.87;;
66327;SDS011;53133;52.862;6.602;2023-04-03T06:01:36;6.07;;;2.43;;
66327;SDS011;53133;52.862;6.602;2023-04-03T06:04:02;5.90;;;2.70;;
66327;SDS011;53133;52.862;6.602;2023-04-03T06:09:17;4.17;;;2.60;;
66327;SDS011;53133;52.862;6.602;2023-04-03T06:11:44;6.47;;;2.60;;
66327;SDS011;53133;52.862;6.602;2023-04-03T06:14:10;9.10;;;2.87;;
66327;SDS011;53133;52.862;6.602;2023-04-03T06:16:35;8.03;;;2.90;;
66327;SDS011;53133;52.862;6.602;2023-04-03T06:19:02;6.77;;;2.57;;
66327;SDS011;53133;52.862;6.602;2023-04-03T06:21:29;6.33;;;2.90;;
66327;SDS011;53133;52.862;6.602;2023-04-03T06:23:55;4.07;;;2.60;;
66327;SDS011;53133;52.862;6.602;2023-04-03T06:26:21;6.60;;;2.70;;
66327;SDS011;53133;52.862;6.602;2023-04-03T06:28:47;7.17;;;2.63;;
66327;SDS011;53133;52.862;6.602;2023-04-03T06:31:13;9.80;;;2.90;;
66327;SDS011;53133;52.862;6.602;2023-04-03T06:33:38;5.93;;;2.40;;
66327;SDS011;53133;52.862;6.602;2023-04-03T06:36:04;7.20;;;2.60;;
66327;SDS011;53133;52.862;6.602;2023-04-03T06:38:31;6.10;;;2.93;;
66327;SDS011;53133;52.862;6.602;2023-04-03T06:40:58;5.83;;;2.57;;
66327;SDS011;53133;52.862;6.602;2023-04-03T06:43:23;4.70;;;2.70;;
66327;SDS011;53133;52.862;6.602;2023-04-03T06:45:49;7.57;;;2.70;;
66327;SDS011;53133;52.862;6.602;2023-04-03T06:48:15;6.77;;;2.60;;
66327;SDS011;53133;52.862;6.602;2023-04-03T06:50:41;4.97;;;2.43;;
66327;SDS011;53133;52.862;6.602;2023-04-03T06:53:07;6.13;;;2.40;;
66327;SDS011;53133;52.862;6.602;2023-04-03T06:55:33;8.00;;;2.77;;
66327;SDS011;53133;52.862;6.602;2023-04-03T06:57:58;7.03;;;2.90;;
66327;SDS011;53133;52.862;6.602;2023-04-03T07:00:24;5.00;;;2.40;;
66327;SDS011;53133;52.862;6.602;2023-04-03T07:02:50;6.47;;;2.70;;
66327;SDS011;53133;52.862;6.602;2023-04-03T07:05:16;5.20;;;2.17;;
66327;SDS011;53133;52.862;6.602;2023-04-03T07:07:42;5.33;;;2.27;;
66327;SDS011;53133;52.862;6.602;2023-04-03T07:10:08;7.13;;;2.67;;
66327;SDS011;53133;52.862;6.602;2023-04-03T07:12:35;7.27;;;2.43;;
66327;SDS011;53133;52.862;6.602;2023-04-03T07:15:01;5.30;;;2.40;;
66327;SDS011;53133;52.862;6.602;2023-04-03T07:17:26;5.63;;;2.20;;
66327;SDS011;53133;52.862;6.602;2023-04-03T07:19:52;7.97;;;2.13;;
66327;SDS011;53133;52.862;6.602;2023-04-03T07:22:18;8.47;;;2.40;;
66327;SDS011;53133;52.862;6.602;2023-04-03T07:24:43;5.97;;;1.93;;
66327;SDS011;53133;52.862;6.602;2023-04-03T07:27:09;4.10;;;2.03;;
66327;SDS011;53133;52.862;6.602;2023-04-03T07:29:37;3.80;;;1.60;;
66327;SDS011;53133;52.862;6.602;2023-04-03T07:32:04;5.23;;;1.77;;
66327;SDS011;53133;52.862;6.602;2023-04-03T07:34:30;5.03;;;2.00;;
66327;SDS011;53133;52.862;6.602;2023-04-03T07:36:57;3.67;;;1.70;;
66327;SDS011;53133;52.862;6.602;2023-04-03T07:39:23;4.80;;;2.07;;
66327;SDS011;53133;52.862;6.602;2023-04-03T07:41:49;7.13;;;2.10;;
66327;SDS011;53133;52.862;6.602;2023-04-03T07:44:14;4.83;;;2.30;;
66327;SDS011;53133;52.862;6.602;2023-04-03T07:46:40;6.73;;;2.23;;
66327;SDS011;53133;52.862;6.602;2023-04-03T07:49:06;4.27;;;1.60;;
66327;SDS011;53133;52.862;6.602;2023-04-03T07:51:32;5.60;;;1.87;;
66327;SDS011;53133;52.862;6.602;2023-04-03T07:53:57;5.00;;;1.67;;
66327;SDS011;53133;52.862;6.602;2023-04-03T07:56:23;5.97;;;2.10;;
66327;SDS011;53133;52.862;6.602;2023-04-03T07:58:50;4.43;;;1.70;;
66327;SDS011;53133;52.862;6.602;2023-04-03T08:01:15;2.80;;;1.30;;
66327;SDS011;53133;52.862;6.602;2023-04-03T08:03:41;27.10;;;6.30;;
66327;SDS011;53133;52.862;6.602;2023-04-03T08:06:08;39.83;;;7.50;;
66327;SDS011;53133;52.862;6.602;2023-04-03T08:08:33;10.67;;;2.87;;
66327;SDS011;53133;52.862;6.602;2023-04-03T08:11:00;3.20;;;1.47;;
66327;SDS011;53133;52.862;6.602;2023-04-03T08:13:27;4.87;;;1.30;;
66327;SDS011;53133;52.862;6.602;2023-04-03T08:15:54;3.53;;;1.50;;
66327;SDS011;53133;52.862;6.602;2023-04-03T08:18:22;2.40;;;1.40;;
66327;SDS011;53133;52.862;6.602;2023-04-03T08:20:49;4.53;;;1.40;;
66327;SDS011;53133;52.862;6.602;2023-04-03T08:23:16;7.20;;;1.70;;
66327;SDS011;53133;52.862;6.602;2023-04-03T08:25:42;3.13;;;1.37;;
66327;SDS011;53133;52.862;6.602;2023-04-03T08:28:08;3.08;;;1.35;;
66327;SDS011;53133;52.862;6.602;2023-04-03T08:30:35;3.53;;;1.40;;
66327;SDS011;53133;52.862;6.602;2023-04-03T08:33:03;5.05;;;1.10;;
66327;SDS011;53133;52.862;6.602;2023-04-03T08:35:29;4.53;;;1.27;;
66327;SDS011;53133;52.862;6.602;2023-04-03T08:37:54;6.78;;;1.50;;
66327;SDS011;53133;52.862;6.602;2023-04-03T08:40:21;4.45;;;1.40;;
66327;SDS011;53133;52.862;6.602;2023-04-03T08:45:23;2.42;;;1.00;;
66327;SDS011;53133;52.862;6.602;2023-04-03T08:48:17;3.50;;;1.30;;
66327;SDS011;53133;52.862;6.602;2023-04-03T08:50:47;3.85;;;1.75;;
66327;SDS011;53133;52.862;6.602;2023-04-03T08:53:17;3.95;;;1.20;;
66327;SDS011;53133;52.862;6.602;2023-04-03T08:55:47;4.77;;;1.43;;
66327;SDS011;53133;52.862;6.602;2023-04-03T08:58:18;4.38;;;1.30;;
66327;SDS011;53133;52.862;6.602;2023-04-03T09:00:59;4.95;;;1.75;;
66327;SDS011;53133;52.862;6.602;2023-04-03T09:03:30;6.10;;;1.63;;
66327;SDS011;53133;52.862;6.602;2023-04-03T09:06:00;4.40;;;1.30;;
66327;SDS011;53133;52.862;6.602;2023-04-03T09:17:03;1.95;;;1.00;;
66327;SDS011;53133;52.862;6.602;2023-04-03T09:19:43;3.35;;;1.00;;
66327;SDS011;53133;52.862;6.602;2023-04-03T09:24:47;1.92;;;1.00;;
66327;SDS011;53133;52.862;6.602;2023-04-03T09:27:21;4.55;;;0.90;;
66327;SDS011;53133;52.862;6.602;2023-04-03T09:29:46;4.97;;;0.95;;
66327;SDS011;53133;52.862;6.602;2023-04-03T09:32:21;2.85;;;0.90;;
66327;SDS011;53133;52.862;6.602;2023-04-03T09:35:00;3.47;;;0.90;;
66327;SDS011;53133;52.862;6.602;2023-04-03T09:37:37;2.80;;;0.88;;
66327;SDS011;53133;52.862;6.602;2023-04-03T09:42:57;3.72;;;1.02;;
66327;SDS011;53133;52.862;6.602;2023-04-03T09:45:26;1.20;;;0.68;;
66327;SDS011;53133;52.862;6.602;2023-04-03T09:50:38;1.80;;;0.65;;
66327;SDS011;53133;52.862;6.602;2023-04-03T09:53:25;1.85;;;0.75;;
66327;SDS011;53133;52.862;6.602;2023-04-03T09:58:47;2.45;;;0.82;;
66327;SDS011;53133;52.862;6.602;2023-04-03T10:03:51;3.70;;;0.70;;
66327;SDS011;53133;52.862;6.602;2023-04-03T10:06:51;2.15;;;0.77;;
66327;SDS011;53133;52.862;6.602;2023-04-03T10:11:57;1.48;;;0.80;;
66327;SDS011;53133;52.862;6.602;2023-04-03T10:14:23;2.47;;;0.80;;
66327;SDS011;53133;52.862;6.602;2023-04-03T10:16:53;1.90;;;0.93;;
66327;SDS011;53133;52.862;6.602;2023-04-03T10:22:16;3.25;;;0.75;;
66327;SDS011;53133;52.862;6.602;2023-04-03T10:24:59;1.70;;;0.90;;
66327;SDS011;53133;52.862;6.602;2023-04-03T10:27:42;3.17;;;1.10;;
66327;SDS011;53133;52.862;6.602;2023-04-03T10:30:24;3.05;;;0.80;;
66327;SDS011;53133;52.862;6.602;2023-04-03T10:35:56;3.40;;;0.95;;
66327;SDS011;53133;52.862;6.602;2023-04-03T10:38:39;2.30;;;1.10;;
66327;SDS011;53133;52.862;6.602;2023-04-03T10:41:28;3.75;;;1.00;;
66327;SDS011;53133;52.862;6.602;2023-04-03T10:44:24;10.63;;;1.50;;
66327;SDS011;53133;52.862;6.602;2023-04-03T10:47:12;2.38;;;0.82;;
66327;SDS011;53133;52.862;6.602;2023-04-03T10:49:51;2.80;;;1.00;;
66327;SDS011;53133;52.862;6.602;2023-04-03T10:57:59;2.17;;;0.70;;
66327;SDS011;53133;52.862;6.602;2023-04-03T11:00:35;2.92;;;0.93;;
66327;SDS011;53133;52.862;6.602;2023-04-03T11:03:06;5.53;;;0.85;;
66327;SDS011;53133;52.862;6.602;2023-04-03T11:05:45;2.58;;;0.95;;
66327;SDS011;53133;52.862;6.602;2023-04-03T11:11:33;2.63;;;0.82;;
66327;SDS011;53133;52.862;6.602;2023-04-03T11:16:30;4.30;;;0.90;;
66327;SDS011;53133;52.862;6.602;2023-04-03T11:19:01;2.22;;;0.80;;
66327;SDS011;53133;52.862;6.602;2023-04-03T11:24:16;3.13;;;0.90;;
66327;SDS011;53133;52.862;6.602;2023-04-03T11:26:47;3.53;;;1.23;;
66327;SDS011;53133;52.862;6.602;2023-04-03T11:29:18;2.28;;;0.77;;
66327;SDS011;53133;52.862;6.602;2023-04-03T11:37:17;3.03;;;0.93;;
66327;SDS011;53133;52.862;6.602;2023-04-03T11:40:24;4.22;;;1.40;;
66327;SDS011;53133;52.862;6.602;2023-04-03T11:50:43;4.15;;;1.13;;
66327;SDS011;53133;52.862;6.602;2023-04-03T11:58:15;3.05;;;1.13;;
66327;SDS011;53133;52.862;6.602;2023-04-03T12:14:20;3.65;;;1.40;;
66327;SDS011;53133;52.862;6.602;2023-04-03T12:16:29;5.60;;;1.10;;
66327;SDS011;53133;52.862;6.602;2023-04-03T12:19:27;4.00;;;1.15;;
66327;SDS011;53133;52.862;6.602;2023-04-03T12:24:29;2.30;;;1.10;;
66327;SDS011;53133;52.862;6.602;2023-04-03T12:34:39;1.83;;;1.10;;
66327;SDS011;53133;52.862;6.602;2023-04-03T12:43:20;3.90;;;1.10;;
66327;SDS011;53133;52.862;6.602;2023-04-03T12:46:04;4.18;;;1.63;;
66327;SDS011;53133;52.862;6.602;2023-04-03T12:48:31;3.65;;;1.33;;
66327;SDS011;53133;52.862;6.602;2023-04-03T12:50:58;5.18;;;1.52;;
66327;SDS011;53133;52.862;6.602;2023-04-03T12:53:26;6.15;;;1.65;;
66327;SDS011;53133;52.862;6.602;2023-04-03T12:56:18;2.47;;;1.20;;
66327;SDS011;53133;52.862;6.602;2023-04-03T12:58:54;7.00;;;1.83;;
66327;SDS011;53133;52.862;6.602;2023-04-03T13:01:37;3.40;;;1.30;;
66327;SDS011;53133;52.862;6.602;2023-04-03T13:04:02;3.80;;;1.40;;
66327;SDS011;53133;52.862;6.602;2023-04-03T13:06:34;2.17;;;1.45;;
66327;SDS011;53133;52.862;6.602;2023-04-03T13:09:06;3.83;;;1.10;;
66327;SDS011;53133;52.862;6.602;2023-04-03T13:11:43;2.85;;;1.50;;
66327;SDS011;53133;52.862;6.602;2023-04-03T13:14:17;3.28;;;1.40;;
66327;SDS011;53133;52.862;6.602;2023-04-03T13:17:06;2.75;;;1.40;;
66327;SDS011;53133;52.862;6.602;2023-04-03T13:19:39;2.78;;;1.48;;
66327;SDS011;53133;52.862;6.602;2023-04-03T13:22:21;2.85;;;1.35;;
66327;SDS011;53133;52.862;6.602;2023-04-03T13:25:04;3.35;;;1.45;;
66327;SDS011;53133;52.862;6.602;2023-04-03T13:27:32;3.53;;;1.30;;
66327;SDS011;53133;52.862;6.602;2023-04-03T13:29:59;2.80;;;1.60;;
66327;SDS011;53133;52.862;6.602;2023-04-03T13:32:27;4.88;;;1.45;;
66327;SDS011;53133;52.862;6.602;2023-04-03T13:34:54;1.77;;;1.30;;
66327;SDS011;53133;52.862;6.602;2023-04-03T13:37:29;4.13;;;1.30;;
66327;SDS011;53133;52.862;6.602;2023-04-03T13:39:57;3.83;;;1.38;;
66327;SDS011;53133;52.862;6.602;2023-04-03T13:42:32;4.55;;;1.38;;
66327;SDS011;53133;52.862;6.602;2023-04-03T13:47:45;3.90;;;1.33;;
66327;SDS011;53133;52.862;6.602;2023-04-03T13:52:46;2.47;;;1.35;;
66327;SDS011;53133;52.862;6.602;2023-04-03T13:55:19;3.50;;;1.38;;
66327;SDS011;53133;52.862;6.602;2023-04-03T13:58:34;5.97;;;1.60;;
66327;SDS011;53133;52.862;6.602;2023-04-03T14:03:19;3.00;;;1.38;;
66327;SDS011;53133;52.862;6.602;2023-04-03T14:05:50;3.13;;;1.20;;
66327;SDS011;53133;52.862;6.602;2023-04-03T14:08:16;3.95;;;1.25;;
66327;SDS011;53133;52.862;6.602;2023-04-03T14:10:43;2.55;;;1.40;;
66327;SDS011;53133;52.862;6.602;2023-04-03T14:13:12;4.50;;;1.50;;
66327;SDS011;53133;52.862;6.602;2023-04-03T14:15:40;2.50;;;1.30;;
66327;SDS011;53133;52.862;6.602;2023-04-03T14:18:06;3.58;;;1.30;;
66327;SDS011;53133;52.862;6.602;2023-04-03T14:20:31;2.72;;;1.50;;
66327;SDS011;53133;52.862;6.602;2023-04-03T14:22:57;4.88;;;1.50;;
66327;SDS011;53133;52.862;6.602;2023-04-03T14:25:23;3.72;;;1.80;;
66327;SDS011;53133;52.862;6.602;2023-04-03T14:27:51;2.35;;;1.52;;
66327;SDS011;53133;52.862;6.602;2023-04-03T14:30:23;2.58;;;1.45;;
66327;SDS011;53133;52.862;6.602;2023-04-03T14:32:51;2.78;;;1.80;;
66327;SDS011;53133;52.862;6.602;2023-04-03T14:35:18;4.25;;;1.50;;
66327;SDS011;53133;52.862;6.602;2023-04-03T14:37:45;3.47;;;2.03;;
66327;SDS011;53133;52.862;6.602;2023-04-03T14:40:13;3.42;;;1.92;;
66327;SDS011;53133;52.862;6.602;2023-04-03T14:42:42;5.47;;;1.90;;
66327;SDS011;53133;52.862;6.602;2023-04-03T14:45:09;4.13;;;1.88;;
66327;SDS011;53133;52.862;6.602;2023-04-03T14:47:39;3.78;;;1.83;;
66327;SDS011;53133;52.862;6.602;2023-04-03T14:50:13;3.38;;;1.60;;
66327;SDS011;53133;52.862;6.602;2023-04-03T14:52:42;3.65;;;1.90;;
66327;SDS011;53133;52.862;6.602;2023-04-03T14:55:08;3.00;;;2.15;;
66327;SDS011;53133;52.862;6.602;2023-04-03T14:57:37;3.25;;;1.50;;
66327;SDS011;53133;52.862;6.602;2023-04-03T15:00:04;3.97;;;2.10;;
66327;SDS011;53133;52.862;6.602;2023-04-03T15:02:34;4.43;;;1.88;;
66327;SDS011;53133;52.862;6.602;2023-04-03T15:05:02;2.33;;;1.90;;
66327;SDS011;53133;52.862;6.602;2023-04-03T15:07:33;4.03;;;1.95;;
66327;SDS011;53133;52.862;6.602;2023-04-03T15:10:23;4.85;;;1.75;;
66327;SDS011;53133;52.862;6.602;2023-04-03T15:12:49;11.07;;;2.33;;
66327;SDS011;53133;52.862;6.602;2023-04-03T15:15:16;3.25;;;1.80;;
66327;SDS011;53133;52.862;6.602;2023-04-03T15:17:44;4.60;;;1.77;;
66327;SDS011;53133;52.862;6.602;2023-04-03T15:20:17;3.40;;;1.60;;
66327;SDS011;53133;52.862;6.602;2023-04-03T15:22:44;2.78;;;1.60;;
66327;SDS011;53133;52.862;6.602;2023-04-03T15:25:10;3.55;;;1.70;;
66327;SDS011;53133;52.862;6.602;2023-04-03T15:27:36;3.53;;;1.65;;
66327;SDS011;53133;52.862;6.602;2023-04-03T15:30:04;3.10;;;1.80;;
66327;SDS011;53133;52.862;6.602;2023-04-03T15:32:31;2.60;;;1.58;;
66327;SDS011;53133;52.862;6.602;2023-04-03T15:34:56;2.22;;;1.45;;
66327;SDS011;53133;52.862;6.602;2023-04-03T15:37:22;2.88;;;1.70;;
66327;SDS011;53133;52.862;6.602;2023-04-03T15:39:48;3.90;;;1.90;;
66327;SDS011;53133;52.862;6.602;2023-04-03T15:42:13;4.78;;;1.80;;
66327;SDS011;53133;52.862;6.602;2023-04-03T15:44:39;5.72;;;1.65;;
66327;SDS011;53133;52.862;6.602;2023-04-03T15:47:05;3.88;;;1.60;;
66327;SDS011;53133;52.862;6.602;2023-04-03T15:49:32;2.58;;;1.60;;
66327;SDS011;53133;52.862;6.602;2023-04-03T15:51:58;3.20;;;1.58;;
66327;SDS011;53133;52.862;6.602;2023-04-03T15:54:24;2.58;;;1.70;;
66327;SDS011;53133;52.862;6.602;2023-04-03T15:56:50;3.20;;;1.50;;
66327;SDS011;53133;52.862;6.602;2023-04-03T15:59:17;2.65;;;1.70;;
66327;SDS011;53133;52.862;6.602;2023-04-03T16:01:42;3.85;;;1.90;;
66327;SDS011;53133;52.862;6.602;2023-04-03T16:04:08;2.25;;;1.60;;
66327;SDS011;53133;52.862;6.602;2023-04-03T16:06:35;3.38;;;1.80;;
66327;SDS011;53133;52.862;6.602;2023-04-03T16:09:01;6.45;;;1.77;;
66327;SDS011;53133;52.862;6.602;2023-04-03T16:11:28;3.20;;;1.70;;
66327;SDS011;53133;52.862;6.602;2023-04-03T16:13:54;2.33;;;1.60;;
66327;SDS011;53133;52.862;6.602;2023-04-03T16:16:21;3.67;;;1.65;;
66327;SDS011;53133;52.862;6.602;2023-04-03T16:18:48;4.18;;;1.70;;
66327;SDS011;53133;52.862;6.602;2023-04-03T16:21:14;2.97;;;1.60;;
66327;SDS011;53133;52.862;6.602;2023-04-03T16:23:41;2.83;;;1.70;;
66327;SDS011;53133;52.862;6.602;2023-04-03T16:26:07;2.45;;;1.40;;
66327;SDS011;53133;52.862;6.602;2023-04-03T16:28:33;3.55;;;1.38;;
66327;SDS011;53133;52.862;6.602;2023-04-03T16:30:59;2.47;;;1.20;;
66327;SDS011;53133;52.862;6.602;2023-04-03T16:33:26;4.38;;;1.50;;
66327;SDS011;53133;52.862;6.602;2023-04-03T16:35:52;2.90;;;1.38;;
66327;SDS011;53133;52.862;6.602;2023-04-03T16:38:17;3.72;;;1.50;;
66327;SDS011;53133;52.862;6.602;2023-04-03T16:40:44;3.90;;;1.63;;
66327;SDS011;53133;52.862;6.602;2023-04-03T16:43:10;3.85;;;1.65;;
66327;SDS011;53133;52.862;6.602;2023-04-03T16:45:36;4.28;;;1.60;;
66327;SDS011;53133;52.862;6.602;2023-04-03T16:48:02;3.55;;;1.33;;
66327;SDS011;53133;52.862;6.602;2023-04-03T16:50:28;2.75;;;1.42;;
66327;SDS011;53133;52.862;6.602;2023-04-03T16:52:53;2.40;;;1.55;;